Time;durP1;ratioP1;P1;durP2;ratioP2;P2;SDS_P1;SDS_P2;PMS_P1;PMS_P2;Temp;Humidity;BMP_temperature;BMP_pressure;BME280_temperature;BME280_humidity;BME280_pressure;Samples;Min_cycle;Max_cycle;Signal;HPM_P1;HPM_P2
2021/09/17 00:01:16;;;;;;;14.73;8.13;;;;;;;9.70;91.76;90913.59;4983013;28;20028;-91
2021/09/17 00:03:41;;;;;;;16.63;10.20;;;;;;;10.03;90.79;90911.72;4983095;28;20037;-92
2021/09/17 00:06:07;;;;;;;18.70;9.98;;;;;;;10.17;89.75;90906.16;4982853;28;20026;-91
2021/09/17 00:08:32;;;;;;;23.80;12.57;;;;;;;10.15;89.86;90912.81;4982658;28;20024;-91
2021/09/17 00:10:57;;;;;;;23.92;13.80;;;;;;;9.97;90.50;90905.19;4982708;28;20026;-92
2021/09/17 00:13:23;;;;;;;24.92;14.30;;;;;;;9.83;91.63;90909.94;4995471;28;20029;-91
2021/09/17 00:15:49;;;;;;;25.27;13.25;;;;;;;9.79;92.12;90909.84;4963488;28;20030;-92
2021/09/17 00:18:14;;;;;;;25.13;13.80;;;;;;;9.84;92.29;90911.47;4963220;28;20474;-92
2021/09/17 00:20:40;;;;;;;20.27;11.68;;;;;;;9.82;92.48;90903.19;4963273;28;20022;-91
2021/09/17 00:23:05;;;;;;;17.23;10.60;;;;;;;9.84;91.98;90903.66;4979189;28;20617;-93
2021/09/17 00:25:31;;;;;;;22.48;12.07;;;;;;;9.74;92.14;90898.84;4978964;28;20464;-91
2021/09/17 00:27:56;;;;;;;18.23;11.52;;;;;;;9.84;91.92;90908.09;4963115;28;20052;-92
2021/09/17 00:30:24;;;;;;;16.73;10.63;;;;;;;9.90;91.93;90912.78;4963252;28;20099;-91
2021/09/17 00:32:49;;;;;;;17.25;10.23;;;;;;;9.94;91.76;90903.25;4963833;28;20049;-92
2021/09/17 00:35:15;;;;;;;21.13;10.52;;;;;;;9.96;91.33;90895.84;4979430;28;20478;-91
2021/09/17 00:37:40;;;;;;;17.50;10.75;;;;;;;10.10;90.97;90902.59;4980505;28;20644;-91
2021/09/17 00:40:06;;;;;;;16.63;10.38;;;;;;;10.01;91.15;90897.50;4999227;28;20030;-92
2021/09/17 00:42:35;;;;;;;18.60;11.57;;;;;;;9.97;91.22;90892.19;4982796;28;20026;-92
2021/09/17 00:45:02;;;;;;;20.13;10.77;;;;;;;10.03;91.31;90898.72;4983348;28;20030;-92
2021/09/17 00:47:27;;;;;;;17.42;10.98;;;;;;;10.11;91.23;90894.47;4982750;28;20044;-92
2021/09/17 00:49:53;;;;;;;17.65;10.23;;;;;;;9.98;91.09;90891.09;4982666;28;20033;-92
2021/09/17 00:52:18;;;;;;;18.48;10.40;;;;;;;9.96;92.02;90885.44;4982605;28;20026;-92
2021/09/17 00:54:43;;;;;;;16.20;9.20;;;;;;;10.06;91.58;90892.06;4983054;28;20025;-92
2021/09/17 00:57:09;;;;;;;18.48;10.52;;;;;;;10.11;91.31;90885.91;4982482;28;20027;-92
2021/09/17 00:59:34;;;;;;;23.67;10.93;;;;;;;10.02;91.20;90884.16;4982199;28;20022;-91
2021/09/17 01:02:00;;;;;;;22.25;11.48;;;;;;;10.05;91.51;90893.91;4982648;28;20017;-91
2021/09/17 01:04:25;;;;;;;17.50;9.90;;;;;;;10.10;91.38;90894.78;4992722;28;20050;-92
2021/09/17 01:06:51;;;;;;;17.48;9.88;;;;;;;10.08;91.25;90891.75;4981673;28;20030;-91
2021/09/17 01:09:16;;;;;;;19.83;11.23;;;;;;;10.04;91.69;90887.19;4994033;28;20021;-96
2021/09/17 01:11:41;;;;;;;16.80;9.85;;;;;;;10.07;91.67;90880.59;5007887;28;20041;-96
2021/09/17 01:14:07;;;;;;;19.27;10.45;;;;;;;10.01;91.29;90867.00;5008604;28;20009;-95
2021/09/17 01:16:32;;;;;;;16.55;10.18;;;;;;;9.96;91.64;90869.81;5002542;28;20033;-91
2021/09/17 01:18:58;;;;;;;22.23;10.35;;;;;;;9.97;91.66;90863.53;4983513;28;20021;-91
2021/09/17 01:21:24;;;;;;;22.02;10.77;;;;;;;9.94;91.46;90872.00;4986196;28;20017;-91
2021/09/17 01:23:49;;;;;;;17.27;10.45;;;;;;;9.90;91.75;90873.75;4985924;28;20025;-91
2021/09/17 01:26:14;;;;;;;21.27;11.60;;;;;;;9.90;91.75;90871.13;4985819;28;20060;-92
2021/09/17 01:28:40;;;;;;;23.85;12.25;;;;;;;9.90;91.80;90871.13;4985414;28;20033;-94
2021/09/17 01:31:05;;;;;;;23.38;12.27;;;;;;;9.92;91.29;90863.75;4985549;28;20025;-92
2021/09/17 01:33:31;;;;;;;24.60;13.13;;;;;;;9.95;90.96;90860.50;5001880;28;20049;-92
2021/09/17 01:36:07;;;;;;;21.92;11.80;;;;;;;9.86;91.30;90859.84;4982103;28;20449;-90
2021/09/17 01:38:34;;;;;;;24.58;12.57;;;;;;;9.86;91.64;90865.06;4980731;28;20434;-90
2021/09/17 01:40:59;;;;;;;18.83;11.15;;;;;;;9.90;91.29;90860.72;4985465;28;20405;-92
2021/09/17 01:43:25;;;;;;;19.73;10.73;;;;;;;9.83;91.39;90855.28;5001668;28;20025;-91
2021/09/17 01:45:50;;;;;;;28.38;11.00;;;;;;;9.83;91.29;90855.28;4985574;28;20473;-91
2021/09/17 01:48:16;;;;;;;21.48;10.95;;;;;;;9.81;91.55;90858.19;4985132;28;20080;-91
2021/09/17 01:50:41;;;;;;;20.00;11.68;;;;;;;9.88;91.14;90856.91;4981923;28;20028;-91
2021/09/17 01:53:07;;;;;;;20.48;10.50;;;;;;;9.91;90.93;90851.81;4965786;28;20025;-92
2021/09/17 01:55:32;;;;;;;16.60;9.27;;;;;;;9.87;91.22;90853.56;4982078;28;20091;-91
2021/09/17 01:57:58;;;;;;;15.35;9.25;;;;;;;9.86;91.07;90857.25;4981699;28;20022;-91
2021/09/17 02:00:23;;;;;;;22.20;10.00;;;;;;;9.80;90.55;90845.53;4994431;28;20473;-92
2021/09/17 02:02:50;;;;;;;16.25;9.90;;;;;;;9.74;90.42;90844.22;4985189;28;20413;-91
2021/09/17 02:05:16;;;;;;;17.48;9.73;;;;;;;9.64;90.75;90844.63;5001468;28;20481;-92
2021/09/17 02:07:41;;;;;;;17.98;10.15;;;;;;;9.63;90.76;90845.72;5000804;28;20064;-92
2021/09/17 02:10:07;;;;;;;21.50;10.77;;;;;;;9.59;91.22;90850.81;5001230;28;20432;-92
2021/09/17 02:12:33;;;;;;;20.90;11.50;;;;;;;9.55;91.45;90844.72;5000976;28;20021;-92
2021/09/17 02:17:27;;;;;;;19.30;10.82;;;;;;;9.63;90.73;90850.91;5086713;23;20060;-91
2021/09/17 02:19:53;;;;;;;22.92;10.55;;;;;;;9.67;90.73;90847.34;5019318;28;20044;-90
2021/09/17 02:22:18;;;;;;;17.67;10.05;;;;;;;9.67;90.81;90841.38;5016093;28;20105;-90
2021/09/17 02:24:44;;;;;;;16.58;10.35;;;;;;;9.66;90.92;90832.81;5015940;28;20025;-90
2021/09/17 02:27:09;;;;;;;22.92;11.68;;;;;;;9.69;91.14;90834.03;4983999;28;20029;-90
2021/09/17 02:29:35;;;;;;;27.15;11.25;;;;;;;9.67;91.06;90830.97;4979261;28;20030;-89
2021/09/17 02:32:00;;;;;;;21.70;10.50;;;;;;;9.65;90.99;90831.31;5032628;28;20026;-90
2021/09/17 02:34:25;;;;;;;21.88;11.80;;;;;;;9.54;91.37;90828.38;5033132;28;20025;-91
2021/09/17 02:36:52;;;;;;;18.02;10.13;;;;;;;9.52;91.72;90834.97;5015645;28;20022;-90
2021/09/17 02:39:17;;;;;;;22.08;11.73;;;;;;;9.53;91.52;90826.06;4983078;28;20025;-90
2021/09/17 02:41:43;;;;;;;22.38;11.65;;;;;;;9.52;91.33;90825.31;4999441;28;20229;-90
2021/09/17 02:44:09;;;;;;;17.92;10.63;;;;;;;9.61;90.92;90829.66;5015617;28;20021;-90
2021/09/17 02:46:34;;;;;;;22.77;11.43;;;;;;;9.56;91.27;90830.63;4999349;28;20477;-89
2021/09/17 02:49:00;;;;;;;20.45;10.52;;;;;;;9.54;91.31;90833.56;4998914;28;20045;-90
2021/09/17 02:51:25;;;;;;;19.00;9.68;;;;;;;9.49;91.36;90833.75;4979569;28;20022;-90
2021/09/17 02:53:50;;;;;;;17.25;9.15;;;;;;;9.59;90.92;90832.59;4998172;28;20041;-90
2021/09/17 02:56:16;;;;;;;18.95;10.02;;;;;;;9.56;90.92;90831.38;5011995;28;20022;-90
2021/09/17 02:58:41;;;;;;;20.63;10.10;;;;;;;9.57;90.93;90832.91;4995566;28;20038;-89
2021/09/17 03:01:07;;;;;;;25.48;10.55;;;;;;;9.55;90.98;90824.69;4995604;28;20032;-91
2021/09/17 03:03:32;;;;;;;20.98;9.25;;;;;;;9.58;90.91;90821.44;4979510;28;20025;-92
2021/09/17 03:05:57;;;;;;;14.75;8.82;;;;;;;9.54;90.80;90815.38;5011994;28;20051;-91
2021/09/17 03:08:23;;;;;;;16.05;9.18;;;;;;;9.57;90.49;90817.28;5012787;28;20029;-90
2021/09/17 03:10:48;;;;;;;19.05;9.70;;;;;;;9.58;90.59;90823.28;5013002;28;20029;-90
2021/09/17 03:13:14;;;;;;;17.05;9.18;;;;;;;9.45;91.01;90811.34;4995336;28;20501;-90
2021/09/17 03:15:39;;;;;;;16.80;8.65;;;;;;;9.41;91.10;90808.63;5011866;28;20080;-90
2021/09/17 03:18:05;;;;;;;14.23;7.93;;;;;;;9.55;89.88;90808.31;4995060;28;20140;-90
2021/09/17 03:20:30;;;;;;;17.70;8.70;;;;;;;9.49;89.86;90804.41;4995598;28;20037;-90
2021/09/17 03:22:55;;;;;;;20.35;9.05;;;;;;;9.46;89.78;90805.03;4995661;28;20022;-90
2021/09/17 03:25:21;;;;;;;18.13;9.65;;;;;;;9.36;90.04;90800.25;5014522;28;20037;-89
2021/09/17 03:27:46;;;;;;;24.52;10.27;;;;;;;9.44;90.48;90799.41;4993838;28;20061;-90
2021/09/17 03:30:12;;;;;;;29.40;10.50;;;;;;;9.29;91.03;90806.75;4995014;28;20026;-90
2021/09/17 03:32:38;;;;;;;28.08;9.93;;;;;;;9.20;91.20;90805.31;4994829;28;20125;-90
2021/09/17 03:35:04;;;;;;;17.98;9.15;;;;;;;9.29;91.11;90806.75;5011430;28;20030;-89
2021/09/17 03:37:29;;;;;;;17.60;10.02;;;;;;;9.31;90.46;90806.44;4978611;28;20116;-90
2021/09/17 03:39:54;;;;;;;20.30;9.85;;;;;;;9.24;90.78;90803.59;4994701;28;20502;-91
2021/09/17 03:42:20;;;;;;;23.88;10.02;;;;;;;9.22;91.08;90805.75;5026984;28;20026;-90
2021/09/17 03:44:45;;;;;;;31.90;10.27;;;;;;;9.22;91.00;90797.94;4995329;28;20033;-90
2021/09/17 03:47:11;;;;;;;21.13;10.88;;;;;;;9.15;91.41;90810.72;5010732;28;20061;-90
2021/09/17 03:49:36;;;;;;;23.30;10.52;;;;;;;9.12;91.68;90813.94;5012069;28;20030;-90
2021/09/17 03:52:02;;;;;;;36.35;10.85;;;;;;;9.12;91.33;90813.94;5014342;28;20497;-90
2021/09/17 03:54:27;;;;;;;27.10;10.15;;;;;;;9.06;91.55;90814.16;4982090;28;20021;-89
2021/09/17 03:57:02;;;;;;;20.63;9.82;;;;;;;8.98;91.97;90812.41;4981641;28;20033;-90
2021/09/17 03:59:27;;;;;;;19.67;8.88;;;;;;;9.06;91.57;90814.16;4997614;28;20033;-90
2021/09/17 04:01:52;;;;;;;13.85;8.15;;;;;;;8.96;91.01;90814.56;5014333;28;20033;-90
2021/09/17 04:04:18;;;;;;;19.17;10.13;;;;;;;8.92;91.56;90813.69;5014320;28;20025;-91
2021/09/17 04:06:43;;;;;;;17.52;9.68;;;;;;;8.88;92.03;90804.25;4997701;28;20032;-88
2021/09/17 04:09:10;;;;;;;17.23;9.32;;;;;;;8.97;92.06;90810.13;4997985;28;20072;-90
2021/09/17 04:11:35;;;;;;;19.52;8.95;;;;;;;9.08;91.20;90804.22;4997909;28;20053;-91
2021/09/17 04:14:01;;;;;;;14.15;8.30;;;;;;;9.12;90.70;90800.94;4981675;28;20025;-90
2021/09/17 04:16:26;;;;;;;15.93;7.28;;;;;;;9.13;90.64;90803.25;4997588;28;20033;-90
2021/09/17 04:18:51;;;;;;;13.98;7.85;;;;;;;9.07;90.32;90802.66;4981264;28;20533;-91
2021/09/17 04:21:17;;;;;;;13.43;8.20;;;;;;;9.13;89.75;90810.28;4981812;28;20485;-90
2021/09/17 04:23:42;;;;;;;10.50;7.15;;;;;;;9.13;90.02;90813.63;5013734;28;20033;-90
2021/09/17 04:26:08;;;;;;;11.07;6.60;;;;;;;9.12;90.19;90806.94;4994167;28;20022;-90
2021/09/17 04:28:33;;;;;;;13.15;7.70;;;;;;;9.06;90.31;90795.97;4977897;28;20030;-90
2021/09/17 04:30:59;;;;;;;14.10;7.22;;;;;;;9.10;90.51;90801.28;5010717;28;20026;-91
2021/09/17 04:33:24;;;;;;;12.63;7.25;;;;;;;9.22;89.54;90800.53;4977868;28;20029;-90
2021/09/17 04:35:49;;;;;;;13.35;7.13;;;;;;;9.23;89.51;90799.47;4962119;28;20048;-90
2021/09/17 04:38:15;;;;;;;11.93;6.53;;;;;;;9.22;89.73;90808.34;4994051;28;20021;-90
2021/09/17 04:40:41;;;;;;;10.05;6.70;;;;;;;9.15;90.14;90808.09;5011507;28;20027;-91
2021/09/17 04:43:07;;;;;;;10.25;6.68;;;;;;;9.08;90.16;90803.44;4994474;28;20033;-90
2021/09/17 04:45:32;;;;;;;9.63;6.85;;;;;;;9.03;90.28;90804.41;4994150;28;20025;-89
2021/09/17 04:47:58;;;;;;;9.90;6.80;;;;;;;8.98;90.37;90802.00;5000061;28;20029;-91
2021/09/17 04:50:23;;;;;;;11.90;6.13;;;;;;;9.05;90.21;90806.69;4997235;28;20390;-90
2021/09/17 04:52:51;;;;;;;10.05;6.45;;;;;;;9.04;89.88;90800.72;5014323;28;20484;-90
2021/09/17 04:55:17;;;;;;;8.60;5.90;;;;;;;9.05;90.12;90802.25;5001475;28;20076;-90
2021/09/17 04:57:42;;;;;;;9.77;6.32;;;;;;;9.07;90.48;90804.50;5033593;28;20022;-91
2021/09/17 05:00:08;;;;;;;8.40;5.82;;;;;;;9.09;89.90;90803.13;5000980;28;20031;-90
2021/09/17 05:02:33;;;;;;;9.10;5.70;;;;;;;9.06;90.03;90803.75;4997653;28;20033;-88
2021/09/17 05:04:59;;;;;;;10.88;5.90;;;;;;;9.00;90.18;90801.69;4965615;28;20032;-91
2021/09/17 05:07:24;;;;;;;9.15;5.72;;;;;;;8.98;90.36;90799.41;4981812;28;20029;-91
2021/09/17 05:09:49;;;;;;;8.45;5.43;;;;;;;8.98;90.38;90802.00;5014415;28;20049;-90
2021/09/17 05:12:15;;;;;;;7.78;5.45;;;;;;;9.00;90.46;90799.84;4965363;28;20025;-91
2021/09/17 05:14:40;;;;;;;8.38;5.28;;;;;;;9.01;90.28;90796.19;4997867;28;20022;-90
2021/09/17 05:17:06;;;;;;;8.32;5.50;;;;;;;9.00;90.21;90799.84;5015862;28;20038;-91
2021/09/17 05:19:31;;;;;;;11.57;5.60;;;;;;;9.05;90.46;90802.25;5018942;28;20021;-91
2021/09/17 05:21:57;;;;;;;8.27;5.50;;;;;;;9.09;90.15;90800.53;5026490;28;20041;-90
2021/09/17 05:24:22;;;;;;;7.80;5.30;;;;;;;9.08;90.01;90808.63;5017672;28;20021;-90
2021/09/17 05:26:48;;;;;;;10.70;6.35;;;;;;;9.09;90.14;90808.31;4997605;28;20030;-90
2021/09/17 05:29:14;;;;;;;10.30;5.88;;;;;;;9.06;90.36;90811.56;4965641;28;20077;-90
2021/09/17 05:31:39;;;;;;;10.35;6.20;;;;;;;8.99;90.45;90807.97;4997647;28;20038;-90
2021/09/17 05:34:04;;;;;;;9.95;6.20;;;;;;;9.05;90.42;90811.88;4997596;28;20382;-89
2021/09/17 05:36:30;;;;;;;10.02;6.15;;;;;;;9.12;90.05;90809.53;4997582;28;20034;-91
2021/09/17 05:38:55;;;;;;;11.32;6.07;;;;;;;9.30;89.20;90799.72;4981041;28;20019;-90
2021/09/17 05:41:21;;;;;;;10.25;6.28;;;;;;;9.27;88.89;90813.34;4997780;28;20029;-91
2021/09/17 05:43:46;;;;;;;8.80;5.38;;;;;;;9.13;89.76;90805.84;5002768;28;20037;-90
2021/09/17 05:46:11;;;;;;;8.00;5.47;;;;;;;9.12;89.71;90801.72;4981437;28;20048;-90
2021/09/17 05:48:37;;;;;;;10.30;5.57;;;;;;;9.23;89.61;90810.63;4981145;28;20029;-90
2021/09/17 05:51:02;;;;;;;11.27;5.90;;;;;;;9.26;89.50;90798.84;4981350;28;20076;-91
2021/09/17 05:53:28;;;;;;;26.70;7.45;;;;;;;9.14;89.64;90794.34;4983111;28;20022;-90
2021/09/17 05:55:53;;;;;;;10.57;6.20;;;;;;;9.25;89.35;90803.25;5016771;28;20022;-90
2021/09/17 05:58:19;;;;;;;13.20;5.88;;;;;;;9.22;89.45;90808.34;5016953;28;20076;-90
2021/09/17 06:00:44;;;;;;;10.25;6.85;;;;;;;9.19;89.92;90801.97;5017050;28;20500;-90
2021/09/17 06:03:09;;;;;;;14.93;6.75;;;;;;;9.26;89.88;90798.84;5000550;28;20017;-90
2021/09/17 06:05:35;;;;;;;11.55;6.82;;;;;;;9.22;89.80;90805.75;5015528;28;20048;-90
2021/09/17 06:08:00;;;;;;;12.23;6.15;;;;;;;9.17;90.26;90798.91;5033769;28;20029;-90
2021/09/17 06:10:26;;;;;;;8.25;6.05;;;;;;;9.24;89.56;90804.34;4999895;28;20026;-90
2021/09/17 06:12:51;;;;;;;9.82;5.72;;;;;;;9.26;89.44;90804.78;4998988;28;20394;-90
2021/09/17 06:15:17;;;;;;;10.60;5.60;;;;;;;9.26;89.40;90799.59;4983438;28;20497;-90
2021/09/17 06:17:43;;;;;;;11.07;5.78;;;;;;;9.28;89.26;90800.03;4999799;28;20111;-90
2021/09/17 06:20:09;;;;;;;8.98;5.65;;;;;;;9.24;89.46;90798.41;5000302;28;20032;-91
2021/09/17 06:22:35;;;;;;;9.43;5.55;;;;;;;9.19;89.16;90791.56;4999993;28;20021;-91
2021/09/17 06:25:00;;;;;;;8.75;5.28;;;;;;;9.23;89.52;90792.44;5016015;28;20045;-89
2021/09/17 06:27:26;;;;;;;10.40;6.07;;;;;;;9.31;89.03;90799.38;5019168;28;20026;-90
2021/09/17 06:29:51;;;;;;;13.15;5.57;;;;;;;9.41;88.76;90803.41;4999419;28;20033;-90
2021/09/17 06:32:17;;;;;;;8.65;5.78;;;;;;;9.41;88.90;90803.41;5016162;28;20029;-89
2021/09/17 06:34:42;;;;;;;9.98;6.25;;;;;;;9.32;89.80;90800.88;5000116;28;20029;-91
2021/09/17 06:37:09;;;;;;;9.10;5.82;;;;;;;9.34;90.00;90797.97;4999218;28;20440;-90
2021/09/17 06:39:35;;;;;;;7.70;5.70;;;;;;;9.42;89.79;90804.94;5010431;28;20028;-90
2021/09/17 06:42:00;;;;;;;9.10;6.40;;;;;;;9.40;89.38;90804.50;4979982;28;20393;-90
2021/09/17 06:44:26;;;;;;;9.38;6.22;;;;;;;9.44;89.81;90802.78;5014221;28;20035;-91
2021/09/17 06:46:51;;;;;;;9.88;5.95;;;;;;;9.61;89.59;90799.22;5015574;28;20025;-91
2021/09/17 06:49:16;;;;;;;7.97;5.80;;;;;;;9.75;89.31;90801.47;5025517;28;20100;-90
2021/09/17 06:51:42;;;;;;;7.82;6.03;;;;;;;9.86;88.96;90801.81;5021104;28;20084;-91
2021/09/17 06:54:07;;;;;;;8.10;5.68;;;;;;;9.87;87.96;90798.91;4996423;28;20033;-91
2021/09/17 06:56:33;;;;;;;9.77;5.97;;;;;;;9.91;87.67;90788.59;5002117;28;20513;-88
2021/09/17 06:58:58;;;;;;;10.00;6.35;;;;;;;10.06;88.30;90787.91;4997706;28;20026;-90
2021/09/17 07:01:25;;;;;;;9.23;6.05;;;;;;;10.15;88.53;90801.59;5012735;28;20033;-89
2021/09/17 07:03:51;;;;;;;9.70;6.28;;;;;;;10.30;87.00;90787.16;5014790;28;20034;-90
2021/09/17 07:06:16;;;;;;;8.63;5.80;;;;;;;10.38;86.68;90790.72;5011744;28;20021;-89
2021/09/17 07:08:41;;;;;;;8.60;5.38;;;;;;;10.35;85.94;90789.53;5030326;28;20553;-89
2021/09/17 07:11:07;;;;;;;9.63;5.25;;;;;;;10.57;84.34;90787.56;5022429;28;20041;-87
2021/09/17 07:13:32;;;;;;;6.40;4.88;;;;;;;10.45;82.83;90781.25;4978636;28;20029;-89
2021/09/17 07:15:58;;;;;;;7.35;4.50;;;;;;;10.42;81.12;90788.97;5012047;28;20038;-90
2021/09/17 07:18:23;;;;;;;8.70;4.35;;;;;;;10.42;80.96;90786.38;4994729;28;20029;-91
2021/09/17 07:20:50;;;;;;;6.47;4.68;;;;;;;10.47;82.09;90786.91;4996905;28;20128;-90
2021/09/17 07:23:16;;;;;;;5.88;4.35;;;;;;;10.63;80.75;90786.97;5014887;28;20518;-91
2021/09/17 07:25:41;;;;;;;6.03;4.18;;;;;;;10.53;81.09;90784.84;5014853;28;20030;-91
2021/09/17 07:28:06;;;;;;;7.20;4.50;;;;;;;10.66;82.70;90790.75;5012399;28;20025;-90
2021/09/17 07:30:33;;;;;;;5.93;4.15;;;;;;;10.78;81.42;90793.34;4996408;28;20021;-90
2021/09/17 07:32:58;;;;;;;7.90;4.47;;;;;;;10.80;80.84;90783.34;4980481;28;20029;-90
2021/09/17 07:35:24;;;;;;;5.95;4.03;;;;;;;10.89;81.59;90789.19;4972967;28;20033;-90
2021/09/17 07:37:50;;;;;;;7.05;4.60;;;;;;;11.00;80.86;90792.06;4999378;28;20063;-90
2021/09/17 07:40:15;;;;;;;5.93;3.90;;;;;;;11.05;80.27;90791.06;4999202;28;20044;-88
2021/09/17 07:42:42;;;;;;;5.95;3.92;;;;;;;11.15;80.04;90799.16;4999693;28;20017;-90
2021/09/17 07:45:08;;;;;;;7.20;4.25;;;;;;;11.31;80.07;90790.59;4983113;28;20029;-90
2021/09/17 07:47:33;;;;;;;4.82;3.90;;;;;;;11.52;78.74;90790.38;4999020;28;20025;-90
2021/09/17 07:49:59;;;;;;;6.20;3.85;;;;;;;11.55;77.79;90789.69;4982789;28;20393;-90
2021/09/17 07:52:24;;;;;;;6.82;3.67;;;;;;;11.58;75.59;90781.19;4998808;28;20021;-90
2021/09/17 07:54:50;;;;;;;7.47;4.22;;;;;;;11.73;76.18;90788.25;5014805;28;20063;-90
2021/09/17 07:57:15;;;;;;;6.90;3.92;;;;;;;11.78;76.93;90792.50;5014477;28;20040;-89
2021/09/17 07:59:40;;;;;;;7.50;4.18;;;;;;;12.07;80.14;90791.31;5014867;28;20026;-91
2021/09/17 08:02:06;;;;;;;8.30;4.40;;;;;;;12.12;76.49;90788.44;4981948;28;20071;-90
2021/09/17 08:04:31;;;;;;;6.72;4.05;;;;;;;12.31;77.00;90791.09;4997683;28;20025;-90
2021/09/17 08:06:57;;;;;;;5.95;3.75;;;;;;;12.48;76.23;90799.66;5014417;28;20025;-90
2021/09/17 08:09:22;;;;;;;6.82;4.13;;;;;;;12.52;72.04;90795.28;4997980;28;20477;-90
2021/09/17 08:11:47;;;;;;;6.18;3.42;;;;;;;12.36;71.32;90790.06;5013489;28;20033;-88
2021/09/17 08:14:13;;;;;;;6.97;3.78;;;;;;;12.36;73.08;90793.44;5011376;28;20038;-90
2021/09/17 08:16:38;;;;;;;6.35;4.00;;;;;;;12.31;73.40;90800.81;5068680;23;20041;-90
2021/09/17 08:19:04;;;;;;;7.22;4.00;;;;;;;12.13;71.75;90803.03;5005016;28;20028;-89
2021/09/17 08:21:30;;;;;;;6.85;4.15;;;;;;;11.99;71.85;90792.25;5003707;28;20480;-89
2021/09/17 08:23:55;;;;;;;9.10;4.13;;;;;;;11.94;72.89;90788.03;5022519;28;20024;-91
2021/09/17 08:26:20;;;;;;;8.77;4.40;;;;;;;12.06;72.91;90795.78;5017441;28;20018;-94
2021/09/17 08:28:46;;;;;;;6.38;3.97;;;;;;;12.35;72.08;90799.78;5053430;23;20048;-92
2021/09/17 08:31:11;;;;;;;5.88;3.78;;;;;;;12.17;71.11;90785.56;4980068;28;20026;-90
2021/09/17 08:33:37;;;;;;;6.28;3.70;;;;;;;12.25;73.86;90795.06;4961842;28;20037;-89
2021/09/17 08:36:03;;;;;;;5.93;3.60;;;;;;;12.25;71.25;90792.44;4962655;28;20398;-93
2021/09/17 08:38:29;;;;;;;7.55;3.60;;;;;;;12.40;73.20;90796.13;4966404;28;20393;-89
2021/09/17 08:40:55;;;;;;;8.25;4.20;;;;;;;12.38;69.48;90796.47;4973005;28;20042;-90
2021/09/17 08:43:22;;;;;;;8.77;3.78;;;;;;;12.17;70.34;90801.25;4988389;28;20029;-91
2021/09/17 08:45:47;;;;;;;5.28;4.00;;;;;;;12.25;69.45;90800.28;4965754;28;20022;-90
2021/09/17 08:48:14;;;;;;;4.63;3.80;;;;;;;12.10;70.18;90801.84;4960632;28;20088;-90
2021/09/17 08:50:40;;;;;;;6.03;3.90;;;;;;;12.35;70.42;90801.63;4964777;28;20406;-89
2021/09/17 08:53:06;;;;;;;7.05;4.00;;;;;;;12.26;68.44;90806.28;4966595;28;20030;-88
2021/09/17 08:55:32;;;;;;;6.20;3.88;;;;;;;12.32;68.61;90794.47;4963259;28;20109;-87
2021/09/17 08:57:57;;;;;;;6.43;3.80;;;;;;;12.47;68.23;90803.38;4962412;28;20054;-89
2021/09/17 09:00:26;;;;;;;5.72;3.42;;;;;;;12.50;68.23;90800.06;4994031;28;20066;-91
2021/09/17 09:02:54;;;;;;;7.00;4.30;;;;;;;12.56;66.58;90798.72;5011443;28;20022;-89
2021/09/17 09:05:25;;;;;;;6.93;3.40;;;;;;;12.79;66.96;90798.78;4966307;28;20402;-90
2021/09/17 09:07:51;;;;;;;4.82;3.55;;;;;;;12.81;66.88;90791.38;4966894;28;20026;-90
2021/09/17 09:10:16;;;;;;;5.28;3.63;;;;;;;13.01;67.43;90799.97;4965882;28;20366;-89
2021/09/17 09:12:43;;;;;;;6.72;3.47;;;;;;;12.98;66.93;90792.81;4981877;28;20080;-89
2021/09/17 09:15:21;;;;;;;5.18;3.28;;;;;;;13.15;65.79;90792.41;4997857;28;20029;-90
2021/09/17 09:17:47;;;;;;;4.47;3.10;;;;;;;13.21;65.87;90790.25;4981793;28;20418;-90
2021/09/17 09:20:26;;;;;;;6.10;3.30;;;;;;;13.20;66.02;90789.50;5002752;28;20024;-90
2021/09/17 09:23:17;;;;;;;4.43;2.88;;;;;;;13.44;67.85;90785.84;4981278;28;20029;-89
2021/09/17 09:25:51;;;;;;;7.05;3.30;;;;;;;13.67;67.38;90785.09;4997191;28;20081;-90
2021/09/17 09:28:18;;;;;;;4.97;3.33;;;;;;;13.67;64.07;90777.22;4966179;28;20033;-88
2021/09/17 09:30:50;;;;;;;5.38;3.28;;;;;;;13.83;65.29;90773.38;4980596;28;20026;-90
2021/09/17 09:33:32;;;;;;;5.07;3.08;;;;;;;13.72;64.34;90779.56;4963810;28;20022;-88
2021/09/17 09:36:16;;;;;;;5.25;3.17;;;;;;;13.71;64.96;90785.88;4965046;28;20482;-89
2021/09/17 09:38:49;;;;;;;5.40;3.15;;;;;;;13.75;64.52;90790.09;4978748;28;20112;-90
2021/09/17 09:41:17;;;;;;;6.47;3.50;;;;;;;13.96;64.06;90788.94;4966624;28;20040;-89
2021/09/17 09:43:55;;;;;;;5.43;3.50;;;;;;;13.69;63.79;90781.00;4966935;28;20022;-90
2021/09/17 09:46:31;;;;;;;6.68;3.20;;;;;;;14.04;66.40;90780.81;4983050;28;20065;-90
2021/09/17 09:48:59;;;;;;;8.07;3.30;;;;;;;14.10;67.28;90773.44;4983777;28;20115;-90
2021/09/17 09:51:35;;;;;;;4.53;3.42;;;;;;;13.92;63.83;90767.88;4998798;28;20069;-90
2021/09/17 09:54:03;;;;;;;4.82;3.20;;;;;;;13.88;62.79;90765.22;4973037;28;20022;-92
2021/09/17 09:56:29;;;;;;;5.82;3.22;;;;;;;14.19;66.07;90776.53;4973555;28;20081;-91
2021/09/17 09:58:54;;;;;;;5.10;3.03;;;;;;;14.20;63.15;90757.06;4981944;28;20026;-90
2021/09/17 10:01:21;;;;;;;6.57;2.90;;;;;;;14.32;64.72;90758.75;4981907;28;20032;-91
2021/09/17 10:03:47;;;;;;;5.43;2.92;;;;;;;14.56;63.26;90760.97;4982312;28;20032;-90
2021/09/17 10:06:16;;;;;;;4.63;3.13;;;;;;;14.49;61.11;90762.72;4965647;28;20022;-90
2021/09/17 10:08:41;;;;;;;5.38;3.00;;;;;;;14.43;64.18;90758.91;4982219;28;20505;-89
2021/09/17 10:11:07;;;;;;;5.63;2.92;;;;;;;14.40;61.22;90767.47;4982455;28;20030;-90
2021/09/17 10:13:32;;;;;;;4.30;2.95;;;;;;;14.17;60.81;90751.78;4967387;28;20553;-91
2021/09/17 10:15:57;;;;;;;5.78;2.95;;;;;;;14.31;61.13;90754.59;4966613;28;20036;-90
2021/09/17 10:18:23;;;;;;;3.28;2.47;;;;;;;14.49;64.18;90758.22;4983784;28;20060;-90
2021/09/17 10:20:50;;;;;;;4.32;3.10;;;;;;;14.46;62.61;90752.94;4981237;28;20084;-91
2021/09/17 10:23:32;;;;;;;4.82;3.20;;;;;;;14.32;62.15;90754.25;4982390;28;20048;-90
2021/09/17 10:26:02;;;;;;;4.53;2.90;;;;;;;14.29;62.24;90744.47;4982004;28;20029;-90
2021/09/17 10:28:27;;;;;;;5.47;2.83;;;;;;;14.52;62.84;90751.53;4998385;28;20053;-90
2021/09/17 10:30:53;;;;;;;8.02;3.08;;;;;;;14.49;62.20;90749.63;4981617;28;20493;-90
2021/09/17 10:33:22;;;;;;;4.35;2.85;;;;;;;14.65;63.46;90750.22;4982571;28;20402;-91
2021/09/17 10:35:48;;;;;;;6.28;2.80;;;;;;;14.67;63.22;90744.63;4998957;28;20026;-91
2021/09/17 10:38:16;;;;;;;4.28;2.67;;;;;;;14.45;60.62;90748.78;4983163;28;20401;-90
2021/09/17 10:40:55;;;;;;;5.15;2.45;;;;;;;14.68;62.31;90749.50;4999384;28;20494;-90
2021/09/17 10:43:20;;;;;;;4.47;2.80;;;;;;;14.81;61.13;90748.16;4999316;28;20079;-90
2021/09/17 10:45:50;;;;;;;3.83;2.90;;;;;;;14.41;61.89;90745.38;5000195;28;20120;-91
2021/09/17 10:49:00;;;;;;;4.32;3.17;;;;;;;14.68;61.14;90749.50;4984212;28;20025;-91
2021/09/17 10:51:33;;;;;;;21.35;4.63;;;;;;;14.82;63.92;90747.03;4997512;28;20034;-90
2021/09/17 10:54:12;;;;;;;7.32;3.60;;;;;;;14.90;64.52;90745.25;4979964;28;20478;-90
2021/09/17 10:56:49;;;;;;;4.45;3.15;;;;;;;14.76;62.27;90745.84;4962992;28;20034;-90
2021/09/17 10:59:15;;;;;;;7.70;3.53;;;;;;;14.46;61.59;90752.94;4995256;28;20061;-88
2021/09/17 11:02:01;;;;;;;7.90;3.90;;;;;;;14.27;63.48;90746.69;4979652;28;20030;-91
2021/09/17 11:04:34;;;;;;;5.90;3.53;;;;;;;14.31;62.36;90747.50;4979459;28;20053;-90
2021/09/17 11:07:17;;;;;;;7.45;3.38;;;;;;;14.40;61.24;90746.50;4962394;28;20041;-90
2021/09/17 11:09:51;;;;;;;3.90;2.90;;;;;;;14.31;63.74;90737.03;4978178;28;20029;-90
2021/09/17 11:12:22;;;;;;;4.95;3.65;;;;;;;14.38;63.33;90740.84;4978233;28;20030;-89
2021/09/17 11:15:14;;;;;;;7.20;2.95;;;;;;;14.48;63.70;90740.22;4961345;28;20057;-89
2021/09/17 11:17:39;;;;;;;5.18;2.90;;;;;;;14.53;61.03;90732.09;4986110;28;20551;-90
2021/09/17 11:20:06;;;;;;;4.85;2.92;;;;;;;14.54;61.74;90726.47;4977838;28;20026;-89
2021/09/17 11:22:46;;;;;;;3.72;3.00;;;;;;;14.45;61.03;90725.97;4945788;28;20027;-91
2021/09/17 11:25:11;;;;;;;13.80;4.47;;;;;;;14.53;62.43;90737.34;4950648;28;20077;-90
2021/09/17 11:27:41;;;;;;;12.75;5.00;;;;;;;14.70;64.42;90731.56;4958993;28;20028;-90
2021/09/17 11:30:07;;;;;;;27.25;10.43;;;;;;;14.91;67.41;90725.78;4977507;28;20030;-90
2021/09/17 11:32:33;;;;;;;5.05;3.15;;;;;;;15.01;65.23;90729.63;4977308;28;20032;-90